Time;durP1;ratioP1;P1;durP2;ratioP2;P2;SDS_P1;SDS_P2;PMS_P1;PMS_P2;Temp;Humidity;BMP_temperature;BMP_pressure;BME280_temperature;BME280_humidity;BME280_pressure;Samples;Min_cycle;Max_cycle;Signal;HPM_P1;HPM_P2
2021/10/31 00:01:28;;;;;;;16.73;11.70;;;;;;;;;;5052894;28;20023;-77
2021/10/31 00:03:54;;;;;;;17.35;12.23;;;;;;;;;;5050102;28;20029;-76
2021/10/31 00:06:21;;;;;;;15.75;11.75;;;;;;;;;;5053910;28;20028;-77
2021/10/31 00:08:50;;;;;;;17.52;12.40;;;;;;;;;;5052513;28;20082;-75
2021/10/31 00:11:17;;;;;;;17.60;11.98;;;;;;;;;;5044246;28;20075;-77
2021/10/31 00:13:43;;;;;;;16.80;12.38;;;;;;;;;;5051524;28;20032;-78
2021/10/31 00:16:09;;;;;;;17.50;12.38;;;;;;;;;;5035927;28;20021;-77
2021/10/31 00:18:35;;;;;;;16.10;11.70;;;;;;;;;;5044664;28;20554;-78
2021/10/31 00:21:01;;;;;;;15.73;12.00;;;;;;;;;;5062993;28;20040;-77
2021/10/31 00:23:27;;;;;;;16.80;12.18;;;;;;;;;;5057849;28;20382;-78
2021/10/31 00:25:53;;;;;;;15.48;11.98;;;;;;;;;;5044804;28;20052;-78
2021/10/31 00:28:30;;;;;;;;;;;;;;;;;;;;;
2021/10/31 00:30:56;;;;;;;17.23;12.20;;;;;;;;;;5052686;28;20112;-76
2021/10/31 00:33:25;;;;;;;16.75;12.25;;;;;;;;;;5047261;28;20051;-78
2021/10/31 00:35:51;;;;;;;16.10;11.70;;;;;;;;;;5058130;28;20055;-77
2021/10/31 00:38:17;;;;;;;16.88;12.73;;;;;;;;;;5057199;28;20107;-78
2021/10/31 00:40:44;;;;;;;16.85;12.82;;;;;;;;;;5051792;28;20367;-78
2021/10/31 00:43:13;;;;;;;20.33;12.80;;;;;;;;;;5048990;28;20033;-78
2021/10/31 00:45:41;;;;;;;16.33;11.60;;;;;;;;;;5055299;28;20025;-77
2021/10/31 00:48:07;;;;;;;16.70;11.80;;;;;;;;;;5045907;28;20071;-76
2021/10/31 00:50:34;;;;;;;15.15;11.90;;;;;;;;;;5055918;28;20021;-76
2021/10/31 00:53:00;;;;;;;14.98;11.95;;;;;;;;;;5054793;28;20045;-77
2021/10/31 00:55:26;;;;;;;15.68;11.77;;;;;;;;;;5054732;28;20115;-77
2021/10/31 00:58:03;;;;;;;16.58;10.65;;;;;;;;;;5056981;28;20033;-78
2021/10/31 01:00:31;;;;;;;16.05;11.57;;;;;;;;;;5015553;28;20471;-78
2021/10/31 01:02:57;;;;;;;16.73;11.77;;;;;;;;;;5030548;28;20029;-77
2021/10/31 01:05:31;;;;;;;15.27;11.88;;;;;;;;;;5034550;28;20125;-78
2021/10/31 01:07:59;;;;;;;;;;;;;;;;;;5019855;28;20038;-77
2021/10/31 01:10:40;;;;;;;16.15;11.35;;;;;;;;;;5014665;28;19956;-76
2021/10/31 01:13:19;;;;;;;15.20;11.35;;;;;;;;;;5018518;28;20472;-78
2021/10/31 01:16:04;;;;;;;15.88;11.65;;;;;;;;;;5033515;28;20040;-78
2021/10/31 01:18:33;;;;;;;21.00;13.15;;;;;;;;;;5032310;28;20037;-78
2021/10/31 01:21:18;;;;;;;20.13;12.82;;;;;;;;;;5035295;28;20108;-78
2021/10/31 01:24:03;;;;;;;16.77;11.38;;;;;;;;;;5029218;28;20056;-78
2021/10/31 01:26:43;;;;;;;17.50;12.32;;;;;;;;;;5018007;28;20077;-79
2021/10/31 01:29:24;;;;;;;15.88;11.73;;;;;;;;;;5037374;28;20386;-78
2021/10/31 01:32:09;;;;;;;18.42;14.27;;;;;;;;;;5038019;28;20081;-77
2021/10/31 01:34:35;;;;;;;18.85;12.65;;;;;;;;;;5011523;28;20098;-77
2021/10/31 01:37:19;;;;;;;18.38;11.75;;;;;;;;;;5032171;28;20056;-78
2021/10/31 01:40:06;;;;;;;14.18;11.57;;;;;;;;;;5021267;28;20041;-78
2021/10/31 01:42:52;;;;;;;15.50;11.15;;;;;;;;;;4938471;29;20044;-77
2021/10/31 01:45:27;;;;;;;14.38;11.13;;;;;;;;;;4844407;29;20118;-77
2021/10/31 01:47:59;;;;;;;15.88;12.68;;;;;;;;;;4847051;29;20080;-78
2021/10/31 01:50:35;;;;;;;14.65;11.32;;;;;;;;;;4847060;29;20050;-76
2021/10/31 01:53:24;;;;;;;14.25;11.57;;;;;;;;;;4841923;29;20049;-78
2021/10/31 01:56:19;;;;;;;15.38;11.93;;;;;;;;;;4843873;29;20046;-77
2021/10/31 01:58:47;;;;;;;16.25;11.70;;;;;;;;;;4792961;30;20036;-78
2021/10/31 02:01:16;;;;;;;14.73;11.38;;;;;;;;;;4800015;29;20114;-77
2021/10/31 02:03:44;;;;;;;14.75;11.10;;;;;;;;;;4791547;29;20108;-78
2021/10/31 02:06:11;;;;;;;17.52;11.82;;;;;;;;;;4789434;30;20039;-77
2021/10/31 02:08:38;;;;;;;13.95;11.02;;;;;;;;;;4788735;29;20055;-77
2021/10/31 02:11:05;;;;;;;15.00;11.82;;;;;;;;;;4788755;30;20533;-77
2021/10/31 02:13:31;;;;;;;16.65;11.38;;;;;;;;;;4791105;29;20047;-77
2021/10/31 02:15:58;;;;;;;14.40;11.20;;;;;;;;;;4794904;29;20031;-77
2021/10/31 02:18:26;;;;;;;16.83;11.70;;;;;;;;;;4788206;29;20051;-77
2021/10/31 02:20:55;;;;;;;16.02;11.88;;;;;;;;;;4880225;29;20033;-77
2021/10/31 02:23:21;;;;;;;15.27;11.30;;;;;;;;;;4959096;28;20114;-78
2021/10/31 02:25:49;;;;;;;15.80;11.32;;;;;;;;;;4974658;28;20091;-77
2021/10/31 02:28:16;;;;;;;16.73;11.18;;;;;;;;;;4976461;28;20047;-78
2021/10/31 02:30:42;;;;;;;16.20;11.95;;;;;;;;;;4970153;28;20038;-77
2021/10/31 02:33:09;;;;;;;15.98;11.65;;;;;;;;;;4966777;28;20490;-78
2021/10/31 02:35:38;;;;;;;17.52;12.18;;;;;;;;;;4997369;28;20050;-77
2021/10/31 02:38:10;;;;;;;14.55;11.73;;;;;;;;;;5019091;28;20120;-76
2021/10/31 02:40:36;;;;;;;15.50;12.07;;;;;;;;;;5009366;28;20064;-77
2021/10/31 02:43:05;;;;;;;18.13;12.48;;;;;;;;;;5017781;28;20025;-77
2021/10/31 02:45:31;;;;;;;17.90;12.52;;;;;;;;;;5004882;28;20088;-77
2021/10/31 02:48:24;;;;;;;18.55;12.80;;;;;;;;;;5018454;28;20034;-77
2021/10/31 02:50:50;;;;;;;16.30;11.82;;;;;;;;;;5021550;28;20034;-78
2021/10/31 02:53:29;;;;;;;14.88;11.80;;;;;;;;;;5013213;28;20109;-77
2021/10/31 02:55:58;;;;;;;16.58;11.85;;;;;;;;;;5005394;28;20049;-78
2021/10/31 02:58:29;;;;;;;14.73;11.32;;;;;;;;;;5014427;28;20028;-77
2021/10/31 03:00:57;;;;;;;15.32;11.60;;;;;;;;;;5013914;28;20025;-77
2021/10/31 03:03:24;;;;;;;16.20;11.95;;;;;;;;;;5016983;28;20033;-78
2021/10/31 03:06:10;;;;;;;15.15;11.05;;;;;;;;;;5022356;28;20022;-77
2021/10/31 03:08:36;;;;;;;16.13;11.70;;;;;;;;;;5018705;28;20033;-77
2021/10/31 03:11:08;;;;;;;13.68;10.75;;;;;;;;;;5010163;28;20034;-76
2021/10/31 03:13:36;;;;;;;14.13;10.77;;;;;;;;;;5017124;28;20022;-77
2021/10/31 03:16:04;;;;;;;13.80;10.82;;;;;;;;;;5022655;28;20030;-79
2021/10/31 03:18:32;;;;;;;14.70;11.18;;;;;;;;;;5018012;28;20032;-77
2021/10/31 03:20:58;;;;;;;12.82;10.45;;;;;;;;;;5017495;28;20030;-77
2021/10/31 03:23:26;;;;;;;19.38;10.52;;;;;;;;;;5015312;28;20054;-78
2021/10/31 03:25:56;;;;;;;14.75;10.75;;;;;;;;;;5025418;28;20045;-78
2021/10/31 03:28:22;;;;;;;12.80;10.82;;;;;;;;;;5037791;28;20557;-77
2021/10/31 03:30:48;;;;;;;12.65;9.93;;;;;;;;;;5040532;28;20425;-77
2021/10/31 03:33:15;;;;;;;13.13;10.43;;;;;;;;;;5027962;28;20518;-77
2021/10/31 03:35:43;;;;;;;14.23;9.40;;;;;;;;;;5032512;28;20413;-78
2021/10/31 03:38:09;;;;;;;13.70;9.77;;;;;;;;;;5038851;28;20018;-78
2021/10/31 03:40:35;;;;;;;14.32;10.07;;;;;;;;;;5033151;28;20049;-78
2021/10/31 03:43:02;;;;;;;20.13;10.95;;;;;;;;;;5032424;28;20494;-77
2021/10/31 03:45:28;;;;;;;14.32;10.23;;;;;;;;;;5030717;28;20026;-77
2021/10/31 03:47:55;;;;;;;13.63;9.88;;;;;;;;;;5034144;28;20478;-77
2021/10/31 03:50:22;;;;;;;13.30;10.20;;;;;;;;;;5020171;28;20029;-77
2021/10/31 03:52:56;;;;;;;13.63;10.63;;;;;;;;;;5040177;28;20026;-79
2021/10/31 03:55:23;;;;;;;14.60;10.52;;;;;;;;;;5030116;28;20419;-78
2021/10/31 03:57:50;;;;;;;13.50;10.32;;;;;;;;;;5030415;28;20018;-78
2021/10/31 04:00:22;;;;;;;14.77;10.23;;;;;;;;;;5042944;28;20025;-79
2021/10/31 04:02:48;;;;;;;14.75;10.95;;;;;;;;;;5007898;28;20578;-78
2021/10/31 04:05:15;;;;;;;13.88;10.30;;;;;;;;;;5032525;28;20036;-78
2021/10/31 04:07:42;;;;;;;13.00;10.35;;;;;;;;;;5023252;28;20648;-78
2021/10/31 04:10:11;;;;;;;12.63;10.13;;;;;;;;;;5033719;28;20120;-79
2021/10/31 04:12:37;;;;;;;11.35;9.65;;;;;;;;;;5035895;28;20022;-78
2021/10/31 04:15:04;;;;;;;16.13;10.95;;;;;;;;;;5030167;28;20029;-78
2021/10/31 04:17:31;;;;;;;12.35;9.80;;;;;;;;;;5020653;28;20033;-77
2021/10/31 04:19:57;;;;;;;14.27;10.13;;;;;;;;;;5022657;28;20056;-77
2021/10/31 04:22:24;;;;;;;15.13;10.77;;;;;;;;;;5035053;28;20026;-78
2021/10/31 04:24:50;;;;;;;14.35;10.65;;;;;;;;;;5012677;28;20384;-78
2021/10/31 04:27:16;;;;;;;12.90;9.95;;;;;;;;;;5038208;28;20486;-74
2021/10/31 04:29:42;;;;;;;12.38;10.15;;;;;;;;;;5029418;28;20032;-77
2021/10/31 04:32:08;;;;;;;12.27;9.60;;;;;;;;;;5026368;28;20021;-78
2021/10/31 04:34:34;;;;;;;13.07;10.18;;;;;;;;;;5030214;28;20406;-78
2021/10/31 04:37:02;;;;;;;14.90;10.48;;;;;;;;;;5025014;28;20025;-78
2021/10/31 04:39:28;;;;;;;12.23;9.68;;;;;;;;;;5013655;28;20061;-79
2021/10/31 04:42:03;;;;;;;12.73;10.18;;;;;;;;;;5036350;28;20026;-78
2021/10/31 04:44:29;;;;;;;13.75;10.32;;;;;;;;;;5016977;28;20034;-79
2021/10/31 04:46:55;;;;;;;13.27;10.30;;;;;;;;;;5036797;28;20026;-78
2021/10/31 04:49:21;;;;;;;14.05;9.70;;;;;;;;;;5032881;28;20378;-78
2021/10/31 04:51:53;;;;;;;15.55;10.32;;;;;;;;;;5037030;28;20021;-79
2021/10/31 04:54:20;;;;;;;13.55;10.10;;;;;;;;;;5033205;28;20062;-77
2021/10/31 04:56:46;;;;;;;13.43;9.70;;;;;;;;;;5034028;28;20033;-77
2021/10/31 04:59:12;;;;;;;11.55;9.20;;;;;;;;;;5037932;28;20037;-78
2021/10/31 05:01:38;;;;;;;11.18;9.40;;;;;;;;;;5031333;28;20028;-76
2021/10/31 05:04:04;;;;;;;13.25;9.75;;;;;;;;;;5024502;28;20025;-78
2021/10/31 05:06:33;;;;;;;12.43;9.75;;;;;;;;;;5027451;28;20052;-78
2021/10/31 05:08:59;;;;;;;11.48;9.13;;;;;;;;;;5024639;28;20018;-77
2021/10/31 05:11:25;;;;;;;13.55;10.00;;;;;;;;;;5034358;28;20029;-77
2021/10/31 05:13:51;;;;;;;14.57;9.45;;;;;;;;;;5043870;28;20029;-77
2021/10/31 05:16:18;;;;;;;11.75;9.48;;;;;;;;;;5029037;28;20037;-77
2021/10/31 05:18:44;;;;;;;11.45;9.25;;;;;;;;;;5025086;28;20428;-77
2021/10/31 05:21:10;;;;;;;11.52;9.00;;;;;;;;;;5020491;28;20021;-78
2021/10/31 05:23:36;;;;;;;10.23;8.30;;;;;;;;;;5036571;28;20026;-77
2021/10/31 05:26:03;;;;;;;10.68;8.23;;;;;;;;;;5038287;28;20042;-77
2021/10/31 05:28:31;;;;;;;11.15;8.65;;;;;;;;;;5020770;28;20084;-78
2021/10/31 05:30:57;;;;;;;12.50;7.95;;;;;;;;;;5018355;28;20064;-78
2021/10/31 05:33:24;;;;;;;11.75;8.30;;;;;;;;;;5039097;28;20026;-78
2021/10/31 05:35:51;;;;;;;13.88;8.70;;;;;;;;;;5036739;28;20047;-78
2021/10/31 05:38:20;;;;;;;10.88;8.38;;;;;;;;;;5037240;28;20113;-79
2021/10/31 05:40:46;;;;;;;13.95;9.27;;;;;;;;;;5038862;28;20033;-78
2021/10/31 05:43:14;;;;;;;12.48;9.50;;;;;;;;;;5032288;28;20061;-77
2021/10/31 05:45:40;;;;;;;12.00;8.45;;;;;;;;;;5038752;28;20022;-78
2021/10/31 05:48:06;;;;;;;13.02;8.88;;;;;;;;;;5038375;28;20026;-78
2021/10/31 05:50:32;;;;;;;12.13;9.15;;;;;;;;;;5030907;28;20038;-76
2021/10/31 05:52:58;;;;;;;10.23;8.45;;;;;;;;;;5037667;28;20018;-78
2021/10/31 05:55:24;;;;;;;11.88;8.43;;;;;;;;;;5032891;28;20045;-78
2021/10/31 05:57:50;;;;;;;11.48;8.40;;;;;;;;;;5036319;28;20029;-77
2021/10/31 06:00:17;;;;;;;11.00;8.95;;;;;;;;;;5037365;28;20026;-77
2021/10/31 06:02:44;;;;;;;11.70;9.02;;;;;;;;;;5042437;28;20048;-79
2021/10/31 06:05:11;;;;;;;14.70;11.30;;;;;;;;;;5041127;28;20025;-78
2021/10/31 06:07:38;;;;;;;12.30;8.07;;;;;;;;;;5029343;28;20026;-78
2021/10/31 06:10:04;;;;;;;11.90;8.43;;;;;;;;;;5037591;28;20379;-77
2021/10/31 06:12:30;;;;;;;10.73;8.25;;;;;;;;;;5033241;28;20028;-77
2021/10/31 06:14:57;;;;;;;12.23;8.73;;;;;;;;;;5028960;28;20042;-76
2021/10/31 06:17:23;;;;;;;14.18;9.32;;;;;;;;;;5020668;28;20042;-79
2021/10/31 06:19:50;;;;;;;11.70;8.43;;;;;;;;;;5029044;28;20032;-76
2021/10/31 06:22:18;;;;;;;13.95;7.80;;;;;;;;;;5044715;28;20032;-78
2021/10/31 06:24:50;;;;;;;14.75;7.97;;;;;;;;;;5033219;28;20057;-73
2021/10/31 06:27:16;;;;;;;10.35;8.20;;;;;;;;;;5015289;28;20051;-75
2021/10/31 06:29:45;;;;;;;14.05;7.68;;;;;;;;;;5036493;28;20425;-73
2021/10/31 06:32:11;;;;;;;16.83;12.77;;;;;;;;;;5022436;28;20028;-77
2021/10/31 06:34:37;;;;;;;15.95;13.23;;;;;;;;;;5022421;28;20502;-87
2021/10/31 06:37:03;;;;;;;18.05;12.93;;;;;;;;;;5009166;28;20018;-91
2021/10/31 06:39:29;;;;;;;20.00;12.60;;;;;;;;;;5039907;28;20111;-79
2021/10/31 06:41:55;;;;;;;13.60;9.45;;;;;;;;;;5031118;28;20479;-92
2021/10/31 06:44:21;;;;;;;26.75;15.45;;;;;;;;;;5022654;28;20030;-90
2021/10/31 06:46:48;;;;;;;23.98;14.48;;;;;;;;;;5012690;28;20113;-85
2021/10/31 06:49:14;;;;;;;15.02;8.27;;;;;;;;;;5041922;28;20131;-77
2021/10/31 06:51:41;;;;;;;12.63;9.57;;;;;;;;;;5006596;28;20498;-80
2021/10/31 06:54:07;;;;;;;15.93;12.18;;;;;;;;;;5010382;28;20598;-79
2021/10/31 06:56:59;;;;;;;49.45;23.02;;;;;;;;;;5053595;28;20014;-75
2021/10/31 06:59:43;;;;;;;19.65;11.55;;;;;;;;;;5043773;28;20018;-73
2021/10/31 07:02:28;;;;;;;11.05;9.05;;;;;;;;;;5044895;28;20063;-82
2021/10/31 07:05:02;;;;;;;13.90;10.35;;;;;;;;;;5025780;28;20024;-89
2021/10/31 07:07:29;;;;;;;10.18;8.63;;;;;;;;;;5034373;28;20029;-76
2021/10/31 07:09:55;;;;;;;11.85;8.35;;;;;;;;;;5029450;28;20534;-73
2021/10/31 07:12:21;;;;;;;14.55;9.85;;;;;;;;;;5034092;28;20108;-75
2021/10/31 07:14:47;;;;;;;12.13;9.38;;;;;;;;;;5030644;28;20029;-76
2021/10/31 07:17:14;;;;;;;10.00;7.47;;;;;;;;;;5011850;28;20030;-71
2021/10/31 07:19:40;;;;;;;9.95;7.00;;;;;;;;;;5006623;28;20026;-80
2021/10/31 07:22:06;;;;;;;9.13;7.13;;;;;;;;;;5025298;28;20029;-84
2021/10/31 07:24:32;;;;;;;11.35;8.13;;;;;;;;;;5030868;28;20033;-75
2021/10/31 07:26:58;;;;;;;9.63;7.82;;;;;;;;;;5011636;28;20045;-83
2021/10/31 07:29:24;;;;;;;10.18;7.25;;;;;;;;;;5008121;28;20543;-81
2021/10/31 07:31:51;;;;;;;13.60;9.82;;;;;;;;;;5004645;28;20030;-84
2021/10/31 07:34:18;;;;;;;11.68;8.85;;;;;;;;;;5029280;28;20487;-75
2021/10/31 07:36:44;;;;;;;9.93;7.30;;;;;;;;;;5026269;28;20036;-81
2021/10/31 07:39:11;;;;;;;14.57;9.57;;;;;;;;;;5026485;28;20109;-81
2021/10/31 07:41:40;;;;;;;9.55;7.00;;;;;;;;;;5026440;28;20030;-84
2021/10/31 07:44:06;;;;;;;11.88;8.63;;;;;;;;;;5008134;28;20025;-85
2021/10/31 07:46:34;;;;;;;20.83;8.35;;;;;;;;;;5029246;28;20025;-78
2021/10/31 07:49:00;;;;;;;27.88;15.95;;;;;;;;;;5028482;28;20036;-90
2021/10/31 07:51:26;;;;;;;22.85;11.93;;;;;;;;;;5027468;28;20021;-81
2021/10/31 07:53:52;;;;;;;12.13;8.73;;;;;;;;;;5029000;28;20026;-87
2021/10/31 07:56:51;;;;;;;13.60;9.15;;;;;;;;;;5030525;28;20083;-90
2021/10/31 07:59:17;;;;;;;10.32;8.73;;;;;;;;;;5008415;28;20033;-89
2021/10/31 08:05:32;;;;;;;10.38;7.88;;;;;;;;;;5025526;28;20469;-71
2021/10/31 08:08:17;;;;;;;14.30;10.25;;;;;;;;;;5032347;28;20033;-85
2021/10/31 08:10:46;;;;;;;13.77;10.15;;;;;;;;;;5007310;28;20064;-82
2021/10/31 08:13:19;;;;;;;11.98;8.88;;;;;;;;;;5015270;28;20044;-93
2021/10/31 08:15:45;;;;;;;;;;;;;;;;;;5028118;28;20430;-79
2021/10/31 08:18:12;;;;;;;13.32;10.45;;;;;;;;;;5008394;28;19913;-83
2021/10/31 08:21:15;;;;;;;11.10;8.95;;;;;;;;;;5027029;28;20056;-77
2021/10/31 08:23:41;;;;;;;10.63;9.30;;;;;;;;;;5048466;28;20041;-70
2021/10/31 08:26:42;;;;;;;13.93;10.18;;;;;;;;;;5060171;28;20047;-70
2021/10/31 08:29:10;;;;;;;12.57;10.32;;;;;;;;;;5026712;28;20061;-71
2021/10/31 08:31:52;;;;;;;15.15;9.55;;;;;;;;;;5043684;28;20029;-71
2021/10/31 08:34:19;;;;;;;14.23;10.13;;;;;;;;;;5020456;28;20196;-73
2021/10/31 08:36:50;;;;;;;18.73;11.48;;;;;;;;;;5032871;28;20034;-73
2021/10/31 08:39:16;;;;;;;13.00;9.85;;;;;;;;;;5029995;28;20033;-74
2021/10/31 08:41:45;;;;;;;12.43;10.52;;;;;;;;;;5038956;28;20046;-75
2021/10/31 08:44:13;;;;;;;14.60;10.32;;;;;;;;;;5024353;28;20033;-75
2021/10/31 08:46:39;;;;;;;21.95;10.82;;;;;;;;;;5051863;28;20120;-77
2021/10/31 08:49:05;;;;;;;14.85;10.02;;;;;;;;;;5055801;28;20029;-75
2021/10/31 08:51:45;;;;;;;15.82;9.90;;;;;;;;;;5054217;28;20049;-74
2021/10/31 08:54:12;;;;;;;21.55;11.48;;;;;;;;;;5026383;28;20037;-78
2021/10/31 08:56:47;;;;;;;12.43;9.35;;;;;;;;;;5048604;28;20029;-75
2021/10/31 08:59:19;;;;;;;12.63;9.40;;;;;;;;;;5050853;28;20029;-78
2021/10/31 09:01:46;;;;;;;14.00;9.50;;;;;;;;;;5021177;28;20026;-77
2021/10/31 09:04:17;;;;;;;15.15;8.77;;;;;;;;;;5059914;28;20061;-73
2021/10/31 09:07:17;;;;;;;;;;;;;;;;;;;;;
2021/10/31 09:09:59;;;;;;;10.90;8.52;;;;;;;;;;4979670;28;20109;-74
2021/10/31 09:12:27;;;;;;;12.60;9.27;;;;;;;;;;4993166;28;20054;-70
2021/10/31 09:15:03;;;;;;;16.45;10.48;;;;;;;;;;5000689;28;20038;-76
2021/10/31 09:17:31;;;;;;;15.43;11.65;;;;;;;;;;4963702;28;20042;-78
2021/10/31 09:20:12;;;;;;;13.63;9.43;;;;;;;;;;4986347;28;20031;-75
2021/10/31 09:22:38;;;;;;;14.77;9.50;;;;;;;;;;4988486;28;20544;-77
2021/10/31 09:25:05;;;;;;;18.13;10.68;;;;;;;;;;4967203;28;20030;-79
2021/10/31 09:27:32;;;;;;;14.63;10.00;;;;;;;;;;4987500;28;20039;-79
2021/10/31 09:29:58;;;;;;;13.85;9.88;;;;;;;;;;4987881;28;20031;-78
2021/10/31 09:32:27;;;;;;;12.48;9.23;;;;;;;;;;4988179;28;20035;-77
2021/10/31 09:34:53;;;;;;;14.38;8.40;;;;;;;;;;5004059;28;20050;-75
2021/10/31 09:37:19;;;;;;;12.18;8.30;;;;;;;;;;4991206;28;20062;-77
2021/10/31 09:39:48;;;;;;;12.13;8.93;;;;;;;;;;5000075;28;20030;-75
2021/10/31 09:42:15;;;;;;;17.38;11.88;;;;;;;;;;5054006;28;20056;-79
2021/10/31 09:44:48;;;;;;;14.90;10.40;;;;;;;;;;5055003;28;20033;-75
2021/10/31 09:47:15;;;;;;;17.35;11.48;;;;;;;;;;5053104;28;20029;-78
2021/10/31 09:49:42;;;;;;;13.52;10.40;;;;;;;;;;5049975;28;20032;-78
2021/10/31 09:52:08;;;;;;;16.83;10.75;;;;;;;;;;5035511;28;20025;-76
2021/10/31 09:54:35;;;;;;;14.48;9.45;;;;;;;;;;5027144;28;20073;-77
2021/10/31 09:57:01;;;;;;;11.68;8.70;;;;;;;;;;5053299;28;20097;-76
2021/10/31 09:59:29;;;;;;;14.60;11.02;;;;;;;;;;5053318;28;20029;-78
2021/10/31 10:02:12;;;;;;;12.73;9.20;;;;;;;;;;5036580;28;20028;-78
2021/10/31 10:04:39;;;;;;;19.88;14.65;;;;;;;;;;5032633;28;20029;-79
2021/10/31 10:07:07;;;;;;;20.80;12.32;;;;;;;;;;5042882;28;20116;-79
2021/10/31 10:09:34;;;;;;;12.45;9.60;;;;;;;;;;5035541;28;20060;-78
2021/10/31 10:12:11;;;;;;;14.57;9.55;;;;;;;;;;5054421;28;20387;-77
2021/10/31 10:14:37;;;;;;;14.05;9.98;;;;;;;;;;5027359;28;20056;-75
2021/10/31 10:17:05;;;;;;;16.65;9.77;;;;;;;;;;5012500;28;20022;-78
2021/10/31 10:19:32;;;;;;;15.38;10.80;;;;;;;;;;5022019;28;20127;-76
2021/10/31 10:22:04;;;;;;;19.15;12.27;;;;;;;;;;5011889;28;20037;-77
2021/10/31 10:24:32;;;;;;;16.83;10.00;;;;;;;;;;5026614;28;20036;-77
2021/10/31 10:27:03;;;;;;;17.92;9.40;;;;;;;;;;5025066;28;20066;-76
2021/10/31 10:29:30;;;;;;;21.90;10.88;;;;;;;;;;5047216;28;20406;-75
2021/10/31 10:32:03;;;;;;;14.55;8.65;;;;;;;;;;5044388;28;20116;-72
2021/10/31 10:41:15;;;;;;;15.00;9.32;;;;;;;;;;4950578;28;20541;-71
2021/10/31 10:47:20;;;;;;;12.90;9.02;;;;;;;;;;4942177;29;20134;-77
2021/10/31 10:49:47;;;;;;;17.30;8.90;;;;;;;;;;4939869;29;20510;-78
2021/10/31 10:52:41;;;;;;;12.82;8.55;;;;;;;;;;4941319;29;20035;-73
2021/10/31 10:55:23;;;;;;;18.05;10.20;;;;;;;;;;4934743;29;20078;-71
2021/10/31 11:01:13;;;;;;;14.88;10.35;;;;;;;;;;4876673;29;20037;-77
2021/10/31 11:03:41;;;;;;;17.00;9.07;;;;;;;;;;4873255;29;20041;-77
2021/10/31 11:06:14;;;;;;;14.80;8.82;;;;;;;;;;4876689;29;20030;-76
2021/10/31 11:09:13;;;;;;;17.58;9.18;;;;;;;;;;4844028;29;20064;-77
2021/10/31 11:12:02;;;;;;;11.02;8.90;;;;;;;;;;4851378;29;20045;-75
2021/10/31 11:14:35;;;;;;;16.83;8.85;;;;;;;;;;4853336;29;20054;-78
2021/10/31 11:17:05;;;;;;;15.02;9.27;;;;;;;;;;4882388;29;20096;-76
2021/10/31 11:19:31;;;;;;;15.95;9.82;;;;;;;;;;4912740;29;20040;-72
2021/10/31 11:25:03;;;;;;;18.67;9.60;;;;;;;;;;4950306;29;20054;-71
2021/10/31 11:27:47;;;;;;;14.35;9.85;;;;;;;;;;4943600;29;20588;-72
2021/10/31 11:30:14;;;;;;;13.75;8.75;;;;;;;;;;4938278;29;20044;-77
2021/10/31 11:32:41;;;;;;;12.05;8.82;;;;;;;;;;4925977;29;20028;-77
2021/10/31 11:35:12;;;;;;;14.00;9.40;;;;;;;;;;4926012;29;20028;-73
2021/10/31 11:38:00;;;;;;;15.18;9.60;;;;;;;;;;4920032;28;20065;-77
2021/10/31 11:40:36;;;;;;;13.45;9.00;;;;;;;;;;5017673;28;20045;-75
2021/10/31 11:43:03;;;;;;;12.10;9.50;;;;;;;;;;5035708;28;20048;-78
2021/10/31 11:45:38;;;;;;;19.00;10.18;;;;;;;;;;5038298;28;20093;-75
2021/10/31 11:48:14;;;;;;;16.63;9.45;;;;;;;;;;5026647;28;20072;-76
2021/10/31 11:51:02;;;;;;;16.35;10.48;;;;;;;;;;5027865;28;20563;-79
2021/10/31 11:54:20;;;;;;;;;;;;;;;;;;;;;
2021/10/31 11:56:51;;;;;;;18.48;11.00;;;;;;;;;;5004363;28;20077;-74
2021/10/31 11:59:22;;;;;;;;;;;;;;;;;;5042106;28;20041;-77
2021/10/31 12:01:50;;;;;;;16.63;10.68;;;;;;;;;;5028503;28;19921;-74
2021/10/31 12:05:25;;;;;;;14.15;9.65;;;;;;;;;;5042462;28;20041;-78
2021/10/31 12:07:35;;;;;;;15.52;10.07;;;;;;;;;;5037301;28;20102;-74
2021/10/31 12:10:01;;;;;;;14.23;10.00;;;;;;;;;;5044382;28;20052;-78
2021/10/31 12:12:29;;;;;;;14.50;9.90;;;;;;;;;;5040376;28;20026;-79
2021/10/31 12:14:57;;;;;;;11.98;9.95;;;;;;;;;;5046504;28;20107;-80
2021/10/31 12:17:23;;;;;;;19.98;10.48;;;;;;;;;;5054831;28;20030;-77
2021/10/31 12:19:50;;;;;;;12.07;9.65;;;;;;;;;;5040633;28;20069;-80
2021/10/31 12:22:32;;;;;;;16.85;10.02;;;;;;;;;;5042551;28;20036;-77
2021/10/31 12:25:03;;;;;;;16.92;9.80;;;;;;;;;;5040018;28;20191;-79
2021/10/31 12:27:41;;;;;;;15.85;10.13;;;;;;;;;;5039600;28;20046;-74
2021/10/31 12:30:15;;;;;;;25.65;12.30;;;;;;;;;;5043445;28;20032;-78
2021/10/31 12:33:12;;;;;;;14.82;10.93;;;;;;;;;;5048222;28;20144;-76
2021/10/31 12:35:45;;;;;;;19.65;11.98;;;;;;;;;;5040481;28;20093;-78
2021/10/31 12:38:32;;;;;;;14.63;10.50;;;;;;;;;;5042903;28;20030;-75
2021/10/31 12:41:11;;;;;;;14.32;10.48;;;;;;;;;;5040621;28;20041;-74
2021/10/31 12:44:06;;;;;;;16.30;10.75;;;;;;;;;;5046516;28;20044;-78
2021/10/31 12:46:33;;;;;;;16.80;11.77;;;;;;;;;;5039301;28;20034;-75
2021/10/31 12:49:05;;;;;;;21.98;14.35;;;;;;;;;;5046355;28;20033;-79
2021/10/31 12:52:04;;;;;;;26.85;16.58;;;;;;;;;;5051008;28;20057;-75
2021/10/31 12:54:35;;;;;;;23.15;14.55;;;;;;;;;;5039596;28;20052;-75
2021/10/31 12:57:10;;;;;;;18.80;12.13;;;;;;;;;;5036751;28;20025;-76
2021/10/31 12:59:49;;;;;;;17.63;10.93;;;;;;;;;;5039757;28;19998;-75
2021/10/31 13:02:35;;;;;;;18.25;10.32;;;;;;;;;;5055078;28;20020;-79
2021/10/31 13:05:03;;;;;;;12.65;9.90;;;;;;;;;;5044276;28;20030;-76
2021/10/31 13:07:41;;;;;;;15.00;10.40;;;;;;;;;;5020773;28;20037;-73
2021/10/31 13:10:20;;;;;;;18.27;10.95;;;;;;;;;;5044557;28;20021;-74
2021/10/31 13:12:47;;;;;;;13.65;10.27;;;;;;;;;;5025616;28;20010;-79
2021/10/31 13:15:14;;;;;;;14.60;9.93;;;;;;;;;;5038915;28;20014;-78
2021/10/31 13:18:17;;;;;;;;;;;;;;;;;;;;;
2021/10/31 13:20:47;;;;;;;18.02;10.52;;;;;;;;;;5047617;28;20072;-75
2021/10/31 13:23:21;;;;;;;15.85;10.10;;;;;;;;;;5017695;28;20022;-74
2021/10/31 13:25:54;;;;;;;16.23;10.25;;;;;;;;;;5036785;28;20132;-74
2021/10/31 13:28:25;;;;;;;14.00;10.10;;;;;;;;;;5032937;28;20017;-75
2021/10/31 13:31:08;;;;;;;19.60;10.80;;;;;;;;;;5048887;28;20029;-79
2021/10/31 13:33:48;;;;;;;21.48;12.82;;;;;;;;;;5029643;28;22310;-76
2021/10/31 13:36:30;;;;;;;18.02;11.65;;;;;;;;;;5012533;28;20038;-78
2021/10/31 13:39:17;;;;;;;19.70;12.30;;;;;;;;;;5036011;28;20033;-77
2021/10/31 13:41:43;;;;;;;21.00;12.20;;;;;;;;;;5049091;28;20068;-78
2021/10/31 13:44:12;;;;;;;20.63;13.77;;;;;;;;;;5041231;28;20029;-79
2021/10/31 13:46:53;;;;;;;20.30;12.10;;;;;;;;;;5035883;28;20013;-80
2021/10/31 13:50:04;;;;;;;20.25;11.25;;;;;;;;;;5051662;28;20040;-79
2021/10/31 13:52:32;;;;;;;16.48;10.10;;;;;;;;;;4965034;29;20076;-78
2021/10/31 13:55:17;;;;;;;20.60;11.23;;;;;;;;;;4973667;29;20055;-79
2021/10/31 13:58:04;;;;;;;18.00;10.77;;;;;;;;;;4967373;29;20039;-78
2021/10/31 14:00:32;;;;;;;23.88;10.95;;;;;;;;;;4956568;29;20023;-79
2021/10/31 14:02:58;;;;;;;15.95;10.88;;;;;;;;;;4966037;29;20091;-79
2021/10/31 14:05:31;;;;;;;17.88;11.98;;;;;;;;;;4971024;29;20047;-79
2021/10/31 14:08:16;;;;;;;14.77;10.38;;;;;;;;;;4962275;29;20124;-78
2021/10/31 14:10:47;;;;;;;13.25;9.68;;;;;;;;;;4960892;28;20054;-76
2021/10/31 14:13:17;;;;;;;11.48;9.13;;;;;;;;;;4971185;29;20412;-79
2021/10/31 14:15:44;;;;;;;17.35;10.30;;;;;;;;;;4972694;29;20039;-79
2021/10/31 14:18:11;;;;;;;17.67;11.98;;;;;;;;;;4958809;29;20019;-79
2021/10/31 14:20:44;;;;;;;22.40;11.38;;;;;;;;;;4960839;28;20103;-79
2021/10/31 14:23:35;;;;;;;25.60;13.73;;;;;;;;;;4965329;28;20067;-76
2021/10/31 14:26:44;;;;;;;;;;;;;;;;;;;;;
2021/10/31 14:29:33;;;;;;;20.23;12.68;;;;;;;;;;5045630;28;20060;-78
2021/10/31 14:35:24;;;;;;;20.90;13.75;;;;;;;;;;4997137;28;20049;-79
2021/10/31 14:38:15;;;;;;;21.65;14.50;;;;;;;;;;5008583;28;20090;-75
2021/10/31 14:40:42;;;;;;;20.70;13.85;;;;;;;;;;5013035;28;20049;-79
2021/10/31 14:46:17;;;;;;;19.92;12.73;;;;;;;;;;5003221;28;20042;-78
2021/10/31 14:48:47;;;;;;;18.02;12.68;;;;;;;;;;5009314;28;20048;-78
2021/10/31 14:51:33;;;;;;;40.33;14.57;;;;;;;;;;5011639;28;20078;-80
2021/10/31 14:54:19;;;;;;;17.67;12.23;;;;;;;;;;5002578;28;20052;-77
2021/10/31 14:56:57;;;;;;;24.20;11.63;;;;;;;;;;5009626;28;20042;-78
2021/10/31 14:59:23;;;;;;;20.85;12.73;;;;;;;;;;5005728;28;20018;-79
2021/10/31 15:01:50;;;;;;;19.15;12.13;;;;;;;;;;4997982;28;20045;-77
2021/10/31 15:04:18;;;;;;;16.30;12.70;;;;;;;;;;5004946;28;20042;-77
2021/10/31 15:06:45;;;;;;;43.50;24.30;;;;;;;;;;5013303;28;20037;-78
2021/10/31 15:09:12;;;;;;;46.47;28.88;;;;;;;;;;5017648;28;20041;-78
2021/10/31 15:11:38;;;;;;;32.20;18.90;;;;;;;;;;5034892;28;20030;-78
2021/10/31 15:14:04;;;;;;;31.25;16.92;;;;;;;;;;5043418;28;20025;-77
2021/10/31 15:16:31;;;;;;;22.98;15.23;;;;;;;;;;5047086;28;20081;-79
2021/10/31 15:18:57;;;;;;;21.13;13.93;;;;;;;;;;5055304;28;20033;-79
2021/10/31 15:21:38;;;;;;;22.15;14.18;;;;;;;;;;5035075;28;20033;-77